createdAt,value
2023-01-19T00:06:22.397Z,4.28
2023-01-19T00:10:04.249Z,5.72
2023-01-19T00:13:46.664Z,4.57
2023-01-19T00:17:39.359Z,5.32
2023-01-19T00:21:03.193Z,4.78
2023-01-19T00:32:25.688Z,4.60
2023-01-19T00:36:19.634Z,5.85
2023-01-19T00:39:52.714Z,5.75
2023-01-19T00:43:34.008Z,5.03
2023-01-19T00:46:45.836Z,5.78
2023-01-19T00:50:04.177Z,5.40
2023-01-19T00:53:21.423Z,5.12
2023-01-19T01:00:33.466Z,4.53
2023-01-19T01:08:35.792Z,4.83
2023-01-19T01:12:25.930Z,4.62
2023-01-19T01:19:59.540Z,4.80
2023-01-19T01:23:35.723Z,4.50
2023-01-19T01:27:00.999Z,3.90
2023-01-19T01:30:16.256Z,4.60
2023-01-19T01:33:40.403Z,3.90
2023-01-19T01:37:41.617Z,2.55
2023-01-19T01:49:00.189Z,3.10
2023-01-19T01:53:07.520Z,3.42
2023-01-19T01:56:39.391Z,2.45
2023-01-19T02:00:02.563Z,1.98
2023-01-19T02:03:40.435Z,1.97
2023-01-19T02:07:46.240Z,2.30
2023-01-19T02:11:17.689Z,1.77
2023-01-19T02:15:37.725Z,1.92
2023-01-19T02:19:01.210Z,2.15
2023-01-19T02:22:34.076Z,1.23
2023-01-19T02:26:10.340Z,1.40
2023-01-19T02:29:33.646Z,1.00
2023-01-19T02:32:56.232Z,1.10
2023-01-19T02:36:28.137Z,1.12
2023-01-19T02:39:49.984Z,1.20
2023-01-19T02:43:24.230Z,1.23
2023-01-19T02:47:00.566Z,0.90
2023-01-19T02:50:28.980Z,0.88
2023-01-19T02:58:25.316Z,0.70
2023-01-19T03:02:07.497Z,0.70
2023-01-19T03:06:05.240Z,0.73
2023-01-19T03:09:41.112Z,0.80
2023-01-19T03:17:01.186Z,0.47
2023-01-19T03:20:14.867Z,0.50
2023-01-19T03:23:37.112Z,0.70
2023-01-19T03:27:09.875Z,0.20
2023-01-19T03:30:38.526Z,0.40
2023-01-19T03:49:25.416Z,0.30
2023-01-19T03:52:42.785Z,0.65
2023-01-19T03:56:27.680Z,0.40
2023-01-19T03:59:54.324Z,0.50
2023-01-19T04:02:59.748Z,0.30
2023-01-19T04:06:31.328Z,0.30
2023-01-19T04:09:51.288Z,0.47
2023-01-19T04:13:06.075Z,0.30
2023-01-19T04:16:23.377Z,0.40
2023-01-19T04:19:27.858Z,0.30
2023-01-19T04:22:48.148Z,0.47
2023-01-19T04:26:17.337Z,0.57
2023-01-19T04:33:25.096Z,0.40
2023-01-19T04:37:24.723Z,0.43
2023-01-19T04:40:49.546Z,0.30
2023-01-19T04:47:31.394Z,0.40
2023-01-19T04:58:45.376Z,0.13
2023-01-19T05:01:57.209Z,0.40
2023-01-19T05:05:44.401Z,0.20
2023-01-19T05:08:55.828Z,0.10
2023-01-19T05:12:07.107Z,0.20
2023-01-19T05:15:48.427Z,0.10
2023-01-19T05:18:57.373Z,0.10
2023-01-19T05:22:30.699Z,0.25
2023-01-19T05:30:02.489Z,0.30
2023-01-19T05:37:15.495Z,0.30
2023-01-19T05:40:39.748Z,0.20
2023-01-19T05:56:31.737Z,0.17
2023-01-19T06:42:37.369Z,0.20
2023-01-19T09:59:26.237Z,6.23
2023-01-19T10:02:54.559Z,5.40
2023-01-19T10:06:57.742Z,5.43
2023-01-19T10:10:19.276Z,5.82
2023-01-19T10:18:13.356Z,6.13
2023-01-19T10:21:52.555Z,5.03
2023-01-19T10:25:42.294Z,4.55
2023-01-19T10:48:20.300Z,3.83
2023-01-19T11:32:46.491Z,4.17
2023-01-19T11:36:28.219Z,3.72
2023-01-19T11:48:04.529Z,3.40
2023-01-19T12:08:20.539Z,3.70
2023-01-19T12:49:36.570Z,4.77
2023-01-19T14:28:40.466Z,4.80
2023-01-19T14:32:27.244Z,5.35
2023-01-19T14:35:55.628Z,5.97
2023-01-19T14:43:08.011Z,5.77
2023-01-19T14:46:24.381Z,4.25
2023-01-19T14:49:38.475Z,5.90
2023-01-19T14:52:52.709Z,5.53
2023-01-19T14:56:54.548Z,5.85
2023-01-19T15:00:19.186Z,5.23
2023-01-19T15:03:43.367Z,7.00
2023-01-19T15:07:00.408Z,6.05
2023-01-19T15:10:21.301Z,4.60
2023-01-19T15:37:46.858Z,7.57
2023-01-19T16:08:54.037Z,8.60
2023-01-19T16:12:09.232Z,7.97
2023-01-19T16:15:58.293Z,8.50
2023-01-19T17:10:00.490Z,7.20
2023-01-19T18:13:50.671Z,5.23
2023-01-19T18:59:03.139Z,5.50
2023-01-19T19:10:15.811Z,5.83
2023-01-19T19:21:12.256Z,6.40
2023-01-19T19:28:35.300Z,4.90
2023-01-19T19:31:37.400Z,5.30
2023-01-19T19:35:38.119Z,6.03
2023-01-19T19:38:57.269Z,5.68
2023-01-19T19:41:59.379Z,5.47
2023-01-19T19:45:50.301Z,5.90
2023-01-19T19:48:59.377Z,7.78
2023-01-19T19:52:08.233Z,6.78
2023-01-19T19:55:44.279Z,5.32
2023-01-19T19:58:58.744Z,6.25
2023-01-19T21:30:26.620Z,6.75
2023-01-19T21:33:47.648Z,5.30
2023-01-19T21:37:10.976Z,6.17
2023-01-19T21:40:45.885Z,6.05
2023-01-19T21:48:37.209Z,6.50
2023-01-19T21:52:06.438Z,6.65
2023-01-19T21:56:10.339Z,6.83
2023-01-19T21:59:14.536Z,5.50
2023-01-19T22:02:39.560Z,6.50
2023-01-19T22:06:13.152Z,6.30
2023-01-19T22:09:24.710Z,6.87
2023-01-19T22:12:56.416Z,6.90
2023-01-19T22:16:25.397Z,5.50
2023-01-19T22:20:01.917Z,5.47
2023-01-19T22:23:21.400Z,6.25
2023-01-19T22:26:57.339Z,6.87
2023-01-19T22:30:08.310Z,6.10
2023-01-19T22:33:28.556Z,6.93
2023-01-19T22:36:34.503Z,7.12
2023-01-19T22:47:21.728Z,6.50
2023-01-19T22:50:58.973Z,7.05
2023-01-19T22:58:17.004Z,6.75
2023-01-19T23:01:44.368Z,6.53
2023-01-19T23:09:02.844Z,5.62
2023-01-19T23:12:18.377Z,5.45
2023-01-19T23:16:00.732Z,6.12
2023-01-19T23:19:21.422Z,5.95
2023-01-19T23:22:26.355Z,5.70
2023-01-19T23:26:16.455Z,5.55
2023-01-19T23:29:49.386Z,6.10
2023-01-19T23:32:57.891Z,5.95
2023-01-19T23:36:14.183Z,5.75
2023-01-19T23:39:29.400Z,6.27
2023-01-19T23:42:38.333Z,5.12
2023-01-19T23:45:55.454Z,5.62
2023-01-19T23:49:23.073Z,5.45
2023-01-19T23:56:29.424Z,6.67
2023-01-19T23:59:44.677Z,6.47
